createdAt,value
2022-11-18T00:01:23.589Z,10.80
2022-11-18T00:03:52.060Z,11.33
2022-11-18T00:06:24.897Z,8.93
2022-11-18T00:08:53.580Z,9.07
2022-11-18T00:11:43.040Z,7.47
2022-11-18T00:14:23.531Z,6.43
2022-11-18T00:16:57.350Z,7.20
2022-11-18T00:19:33.611Z,7.43
2022-11-18T00:22:01.624Z,7.63
2022-11-18T00:24:28.560Z,7.07
2022-11-18T00:26:56.177Z,7.80
2022-11-18T00:29:26.180Z,7.70
2022-11-18T00:31:52.995Z,6.40
2022-11-18T00:34:19.853Z,7.07
2022-11-18T00:36:48.145Z,7.97
2022-11-18T00:39:18.800Z,7.60
2022-11-18T00:42:05.198Z,6.93
2022-11-18T00:44:32.303Z,7.13
2022-11-18T00:46:59.112Z,6.10
2022-11-18T00:49:26.019Z,5.90
2022-11-18T00:51:52.857Z,5.13
2022-11-18T00:54:21.177Z,5.83
2022-11-18T00:56:48.009Z,5.73
2022-11-18T00:59:14.878Z,6.20
2022-11-18T01:01:42.026Z,6.43
2022-11-18T01:04:09.016Z,5.67
2022-11-18T01:06:35.836Z,7.03
2022-11-18T01:09:02.708Z,6.20
2022-11-18T01:11:48.103Z,6.10
2022-11-18T01:14:15.030Z,7.17
2022-11-18T01:16:41.852Z,7.30
2022-11-18T01:19:08.810Z,8.30
2022-11-18T01:21:35.607Z,8.60
2022-11-18T01:24:02.430Z,7.67
2022-11-18T01:26:29.253Z,7.07
2022-11-18T01:28:57.652Z,7.30
2022-11-18T01:31:24.607Z,8.97
2022-11-18T01:33:51.815Z,9.60
2022-11-18T01:36:25.177Z,8.47
2022-11-18T01:38:53.681Z,8.80
2022-11-18T01:41:24.424Z,8.20
2022-11-18T01:44:26.017Z,6.90
2022-11-18T01:46:52.825Z,6.13
2022-11-18T01:49:19.951Z,5.60
2022-11-18T01:51:57.091Z,5.53
2022-11-18T01:54:39.701Z,6.20
2022-11-18T01:57:13.749Z,6.17
2022-11-18T01:59:46.215Z,6.27
2022-11-18T02:02:15.278Z,7.10
2022-11-18T02:04:48.729Z,6.40
2022-11-18T02:07:17.115Z,6.27
2022-11-18T02:09:44.343Z,5.70
2022-11-18T02:12:13.124Z,6.13
2022-11-18T02:14:45.254Z,6.37
2022-11-18T02:17:44.790Z,6.73
2022-11-18T02:20:32.899Z,7.67
2022-11-18T02:23:39.495Z,7.50
2022-11-18T02:26:43.300Z,7.17
2022-11-18T02:29:19.412Z,6.77
2022-11-18T02:32:11.378Z,5.23
2022-11-18T02:34:53.246Z,4.90
2022-11-18T02:37:32.450Z,5.13
2022-11-18T02:40:09.257Z,4.80
2022-11-18T02:42:40.413Z,5.30
2022-11-18T02:45:15.507Z,5.60
2022-11-18T02:47:46.802Z,7.17
2022-11-18T02:50:20.786Z,7.77
2022-11-18T02:52:57.130Z,6.50
2022-11-18T02:55:29.769Z,6.43
2022-11-18T02:57:58.695Z,7.07
2022-11-18T03:00:25.484Z,6.10
2022-11-18T03:02:52.332Z,8.07
2022-11-18T03:06:00.623Z,8.17
2022-11-18T03:08:37.755Z,7.17
2022-11-18T03:11:18.119Z,6.67
2022-11-18T03:13:56.688Z,4.77
2022-11-18T03:17:00.356Z,5.00
2022-11-18T03:19:55.039Z,5.70
2022-11-18T03:23:21.556Z,5.30
2022-11-18T03:26:17.939Z,4.93
2022-11-18T03:28:52.852Z,5.10
2022-11-18T03:31:30.464Z,5.87
2022-11-18T03:34:17.404Z,5.53
2022-11-18T03:36:52.358Z,4.97
2022-11-18T03:39:23.663Z,5.00
2022-11-18T03:42:04.899Z,4.93
2022-11-18T03:44:37.536Z,5.30
2022-11-18T03:47:19.533Z,5.53
2022-11-18T03:49:55.371Z,5.73
2022-11-18T03:52:30.718Z,5.20
2022-11-18T03:55:05.671Z,5.30
2022-11-18T03:57:52.997Z,5.40
2022-11-18T04:00:20.353Z,5.50
2022-11-18T04:02:50.411Z,5.40
2022-11-18T04:05:19.449Z,5.53
2022-11-18T04:08:02.649Z,6.43
2022-11-18T04:10:45.703Z,5.90
2022-11-18T04:13:25.168Z,5.30
2022-11-18T04:15:54.336Z,5.50
2022-11-18T04:18:21.619Z,5.53
2022-11-18T04:20:48.563Z,6.07
2022-11-18T04:23:15.349Z,6.37
2022-11-18T04:25:42.182Z,5.50
2022-11-18T04:28:09.099Z,5.77
2022-11-18T04:30:36.224Z,5.63
2022-11-18T04:33:03.183Z,5.80
2022-11-18T04:35:30.039Z,6.33
2022-11-18T04:37:56.902Z,6.30
2022-11-18T04:40:23.693Z,6.73
2022-11-18T04:42:50.515Z,6.87
2022-11-18T04:45:17.372Z,7.27
2022-11-18T04:47:44.196Z,8.00
2022-11-18T04:50:11.023Z,8.20
2022-11-18T04:52:37.908Z,8.33
2022-11-18T04:55:05.265Z,7.67
2022-11-18T04:57:32.177Z,7.23
2022-11-18T04:59:58.966Z,8.17
2022-11-18T05:02:25.827Z,7.80
2022-11-18T05:04:52.670Z,7.20
2022-11-18T05:07:19.540Z,7.30
2022-11-18T05:09:46.367Z,6.73
2022-11-18T05:12:33.407Z,6.53
2022-11-18T05:15:00.502Z,6.23
2022-11-18T05:17:27.374Z,6.03
2022-11-18T05:19:54.332Z,6.23
2022-11-18T05:22:21.181Z,6.63
2022-11-18T05:24:48.047Z,6.27
2022-11-18T05:27:15.681Z,6.53
2022-11-18T05:29:42.746Z,6.07
2022-11-18T05:32:09.889Z,5.50
2022-11-18T05:34:36.823Z,5.70
2022-11-18T05:37:03.733Z,6.00
2022-11-18T05:39:32.707Z,7.60
2022-11-18T05:42:19.024Z,6.30
2022-11-18T05:44:45.975Z,7.13
2022-11-18T05:47:12.958Z,6.37
2022-11-18T05:49:39.890Z,6.97
2022-11-18T05:52:06.692Z,6.57
2022-11-18T05:54:33.814Z,7.03
2022-11-18T05:57:00.676Z,6.80
2022-11-18T05:59:27.512Z,6.50
2022-11-18T06:02:16.183Z,6.90
2022-11-18T06:04:55.125Z,6.50
2022-11-18T06:07:26.670Z,5.77
2022-11-18T06:10:03.693Z,6.83
2022-11-18T06:12:39.741Z,5.43
2022-11-18T06:15:18.143Z,5.43
2022-11-18T06:17:59.879Z,6.23
2022-11-18T06:20:27.547Z,9.70
2022-11-18T06:22:57.354Z,10.00
2022-11-18T06:25:24.903Z,10.47
2022-11-18T06:27:57.263Z,10.53
2022-11-18T06:30:24.098Z,10.27
2022-11-18T06:32:50.969Z,9.33
2022-11-18T06:35:17.835Z,9.97
2022-11-18T06:37:44.709Z,9.23
2022-11-18T06:40:12.505Z,9.23
2022-11-18T06:42:58.145Z,8.47
2022-11-18T06:49:31.546Z,9.40
2022-11-18T06:51:58.349Z,9.87
2022-11-18T06:54:25.081Z,11.63
2022-11-18T06:56:51.872Z,9.20
2022-11-18T06:59:23.490Z,10.53
2022-11-18T07:01:52.996Z,11.20
2022-11-18T07:04:20.013Z,10.47
2022-11-18T07:06:46.763Z,10.73
2022-11-18T07:09:13.584Z,9.30
2022-11-18T07:11:41.351Z,10.63
2022-11-18T07:14:09.505Z,11.90
2022-11-18T07:16:37.109Z,10.90
2022-11-18T07:19:10.589Z,10.97
2022-11-18T07:21:38.219Z,10.90
2022-11-18T07:24:08.319Z,12.23
2022-11-18T07:26:36.076Z,10.87
2022-11-18T07:29:06.662Z,12.03
2022-11-18T07:31:35.313Z,10.17
2022-11-18T07:34:02.102Z,9.87
2022-11-18T07:36:35.344Z,7.73
2022-11-18T07:39:05.009Z,8.50
2022-11-18T07:41:33.779Z,9.10
2022-11-18T07:44:09.392Z,9.70
2022-11-18T07:46:37.816Z,11.47
2022-11-18T07:49:08.758Z,13.23
2022-11-18T07:51:39.082Z,12.80
2022-11-18T07:54:12.696Z,10.63
2022-11-18T07:56:40.155Z,11.37
2022-11-18T07:59:07.295Z,12.43
2022-11-18T08:01:35.560Z,12.43
2022-11-18T08:04:11.960Z,11.10
2022-11-18T08:06:39.765Z,9.97
2022-11-18T08:09:07.832Z,8.80
2022-11-18T08:11:35.321Z,9.00
2022-11-18T08:14:02.152Z,7.67
2022-11-18T08:16:29.596Z,7.63
2022-11-18T08:18:58.686Z,6.50
2022-11-18T08:21:25.493Z,6.63
2022-11-18T08:23:57.869Z,7.83
2022-11-18T08:26:25.722Z,7.10
2022-11-18T08:28:53.291Z,7.63
2022-11-18T08:31:27.888Z,6.73
2022-11-18T08:34:01.313Z,7.20
2022-11-18T08:36:32.554Z,7.30
2022-11-18T08:39:03.101Z,7.23
2022-11-18T08:41:45.426Z,7.60
2022-11-18T08:44:15.526Z,7.60
2022-11-18T08:46:45.726Z,7.50
2022-11-18T08:49:12.913Z,7.57
2022-11-18T08:51:39.719Z,8.83
2022-11-18T08:54:06.572Z,9.40
2022-11-18T08:56:33.308Z,10.73
2022-11-18T08:59:00.134Z,11.55
2022-11-18T09:01:35.930Z,11.47
2022-11-18T09:04:03.256Z,10.77
2022-11-18T09:06:30.403Z,10.73
2022-11-18T09:09:00.638Z,9.47
2022-11-18T09:11:30.248Z,9.37
2022-11-18T09:14:53.399Z,8.67
2022-11-18T09:16:46.907Z,9.53
2022-11-18T09:22:04.228Z,9.48
2022-11-18T09:24:31.121Z,8.52
2022-11-18T09:26:57.941Z,9.35
2022-11-18T09:29:27.745Z,9.30
2022-11-18T09:31:55.240Z,9.55
2022-11-18T09:34:23.427Z,9.77
2022-11-18T09:36:50.850Z,8.07
2022-11-18T09:39:17.976Z,8.60
2022-11-18T09:41:48.819Z,8.38
2022-11-18T09:44:43.543Z,7.75
2022-11-18T09:47:34.108Z,8.03
2022-11-18T09:50:20.279Z,6.85
2022-11-18T09:53:20.651Z,5.80
2022-11-18T09:55:50.286Z,5.90
2022-11-18T09:58:36.468Z,5.32
2022-11-18T10:01:11.940Z,4.82
2022-11-18T10:03:39.993Z,4.90
2022-11-18T10:06:10.164Z,4.25
2022-11-18T10:09:09.372Z,4.25
2022-11-18T10:11:54.038Z,4.05
2022-11-18T10:14:51.561Z,4.10
2022-11-18T10:17:48.900Z,3.63
2022-11-18T10:20:25.059Z,3.80
2022-11-18T10:23:22.839Z,3.70
2022-11-18T10:25:49.713Z,3.45
2022-11-18T10:28:29.197Z,4.03
2022-11-18T10:31:10.214Z,3.50
2022-11-18T10:33:38.314Z,3.30
2022-11-18T10:36:17.257Z,3.70
2022-11-18T10:38:49.690Z,3.22
2022-11-18T10:41:20.815Z,2.92
2022-11-18T10:43:55.639Z,3.47
2022-11-18T10:46:25.921Z,3.42
2022-11-18T10:49:10.990Z,3.20
2022-11-18T10:51:44.695Z,3.75
2022-11-18T10:54:20.122Z,3.17
2022-11-18T10:56:57.822Z,3.60
2022-11-18T10:59:40.109Z,3.58
2022-11-18T11:02:40.717Z,3.85
2022-11-18T11:05:23.272Z,4.15
2022-11-18T11:08:36.877Z,3.92
2022-11-18T11:11:04.741Z,3.67
2022-11-18T11:13:38.314Z,4.00
2022-11-18T11:16:07.154Z,4.78
2022-11-18T11:18:41.707Z,3.92
2022-11-18T11:21:25.220Z,3.63
2022-11-18T11:23:52.055Z,3.80
2022-11-18T11:30:03.591Z,4.15
2022-11-18T11:33:00.801Z,4.88
2022-11-18T11:35:37.783Z,5.20
2022-11-18T11:38:21.705Z,6.15
2022-11-18T11:41:08.693Z,6.38
2022-11-18T11:43:47.392Z,7.22
2022-11-18T11:47:35.200Z,7.15
2022-11-18T11:50:20.050Z,6.97
2022-11-18T11:53:11.631Z,6.75
2022-11-18T11:56:38.665Z,6.55
2022-11-18T11:59:50.164Z,5.55
2022-11-18T12:02:47.793Z,6.30
2022-11-18T12:05:25.088Z,6.40
2022-11-18T12:08:00.208Z,8.25
2022-11-18T12:11:01.307Z,6.25
2022-11-18T12:13:52.641Z,6.00
2022-11-18T12:16:56.077Z,5.60
2022-11-18T12:19:24.030Z,5.85
2022-11-18T12:21:58.396Z,5.38
2022-11-18T12:24:33.482Z,5.90
2022-11-18T12:27:34.440Z,6.18
2022-11-18T12:30:03.915Z,6.70
2022-11-18T12:32:46.627Z,5.97
2022-11-18T12:35:13.374Z,5.38
2022-11-18T12:37:52.012Z,5.63
2022-11-18T12:40:47.400Z,5.40
2022-11-18T12:43:45.066Z,6.85
2022-11-18T12:46:49.205Z,5.32
2022-11-18T12:49:22.311Z,4.85
2022-11-18T12:51:58.209Z,4.63
2022-11-18T12:54:32.990Z,4.75
2022-11-18T12:57:04.378Z,4.20
2022-11-18T12:59:36.714Z,4.07
2022-11-18T13:02:26.479Z,4.30
2022-11-18T13:05:06.986Z,4.22
2022-11-18T13:08:01.918Z,4.30
2022-11-18T13:10:33.157Z,4.30
2022-11-18T13:13:02.235Z,4.07
2022-11-18T13:15:47.440Z,3.80
2022-11-18T13:18:18.735Z,4.10
2022-11-18T13:21:20.486Z,3.50
2022-11-18T13:23:59.242Z,3.50
2022-11-18T13:26:32.384Z,3.85
2022-11-18T13:29:49.771Z,3.78
2022-11-18T13:32:27.223Z,4.65
2022-11-18T13:34:58.159Z,3.80
2022-11-18T13:37:29.217Z,3.67
2022-11-18T13:39:56.896Z,3.65
2022-11-18T13:42:32.015Z,3.90
2022-11-18T13:45:03.899Z,3.33
2022-11-18T13:48:10.125Z,3.85
2022-11-18T13:50:43.785Z,3.30
2022-11-18T13:53:32.791Z,3.20
2022-11-18T13:56:04.574Z,3.10
2022-11-18T13:59:10.217Z,3.25
2022-11-18T14:01:35.016Z,3.10
2022-11-18T14:04:30.087Z,3.35
2022-11-18T14:07:25.192Z,2.73
2022-11-18T14:10:05.559Z,3.00
2022-11-18T14:12:35.907Z,3.10
2022-11-18T14:15:30.539Z,3.20
2022-11-18T14:18:02.296Z,2.90
2022-11-18T14:20:31.236Z,3.50
2022-11-18T14:23:01.482Z,3.20
2022-11-18T14:25:36.543Z,3.10
2022-11-18T14:28:16.763Z,3.50
2022-11-18T14:31:25.123Z,3.70
2022-11-18T14:34:18.122Z,4.90
2022-11-18T14:36:46.506Z,3.90
2022-11-18T14:39:32.384Z,4.70
2022-11-18T14:41:59.809Z,4.50
2022-11-18T14:44:27.783Z,4.93
2022-11-18T14:47:00.184Z,5.10
2022-11-18T14:49:31.427Z,4.18
2022-11-18T14:52:02.356Z,7.50
2022-11-18T14:54:29.541Z,4.53
2022-11-18T14:57:02.460Z,7.80
2022-11-18T14:59:29.324Z,5.97
2022-11-18T15:01:59.425Z,3.90
2022-11-18T15:04:26.654Z,3.42
2022-11-18T15:06:53.676Z,2.97
2022-11-18T15:09:20.613Z,3.23
2022-11-18T15:11:47.689Z,3.42
2022-11-18T15:14:14.417Z,3.13
2022-11-18T15:16:41.282Z,3.70
2022-11-18T15:19:15.431Z,3.70
2022-11-18T15:21:43.577Z,3.90
2022-11-18T15:24:10.341Z,4.10
2022-11-18T15:26:42.318Z,4.07
2022-11-18T15:29:21.492Z,3.42
2022-11-18T15:31:49.469Z,3.30
2022-11-18T15:34:18.679Z,3.50
2022-11-18T15:36:46.207Z,3.40
2022-11-18T15:39:13.693Z,3.63
2022-11-18T15:41:42.822Z,3.43
2022-11-18T15:44:11.563Z,3.33
2022-11-18T15:46:39.347Z,3.10
2022-11-18T15:49:09.316Z,3.13
2022-11-18T15:51:36.845Z,3.50
2022-11-18T15:54:03.719Z,3.40
2022-11-18T15:56:32.821Z,3.60
2022-11-18T15:59:11.157Z,3.90
2022-11-18T16:01:45.566Z,4.13
2022-11-18T16:04:17.368Z,4.30
2022-11-18T16:06:44.939Z,4.40
2022-11-18T16:09:13.494Z,5.53
2022-11-18T16:11:58.959Z,6.97
2022-11-18T16:14:26.172Z,7.77
2022-11-18T16:16:56.368Z,8.77
2022-11-18T16:19:26.047Z,13.17
2022-11-18T16:21:56.741Z,6.07
2022-11-18T16:24:28.659Z,5.27
2022-11-18T16:26:56.254Z,4.60
2022-11-18T16:29:24.340Z,9.30
2022-11-18T16:31:52.775Z,12.53
2022-11-18T16:34:27.657Z,12.37
2022-11-18T16:37:01.067Z,14.70
2022-11-18T16:39:29.247Z,14.73
2022-11-18T16:42:06.685Z,16.63
2022-11-18T16:44:34.795Z,20.50
2022-11-18T16:47:01.739Z,20.23
2022-11-18T16:49:28.711Z,19.17
2022-11-18T16:51:57.066Z,12.23
2022-11-18T16:54:31.833Z,12.13
2022-11-18T16:56:59.974Z,10.77
2022-11-18T16:59:30.391Z,12.63
2022-11-18T17:01:59.488Z,17.73
2022-11-18T17:04:28.803Z,17.73
2022-11-18T17:06:57.118Z,23.90
2022-11-18T17:09:24.648Z,25.03
2022-11-18T17:11:54.155Z,39.33
2022-11-18T17:14:21.996Z,10.20
2022-11-18T17:16:49.671Z,3.70
2022-11-18T17:19:21.546Z,5.43
2022-11-18T17:21:49.774Z,8.53
2022-11-18T17:24:20.712Z,13.70
2022-11-18T17:26:48.682Z,13.73
2022-11-18T17:29:16.216Z,6.53
2022-11-18T17:31:43.748Z,4.07
2022-11-18T17:34:14.701Z,3.87
2022-11-18T17:36:42.534Z,4.43
2022-11-18T17:39:11.692Z,4.53
2022-11-18T17:41:58.057Z,4.93
2022-11-18T17:44:25.364Z,10.47
2022-11-18T17:46:52.155Z,11.90
2022-11-18T17:49:21.336Z,15.00
2022-11-18T17:51:48.539Z,16.73
2022-11-18T17:54:15.854Z,16.23
2022-11-18T17:56:43.210Z,17.00
2022-11-18T17:59:10.176Z,18.07
2022-11-18T18:01:37.037Z,17.03
2022-11-18T18:04:04.029Z,13.73
2022-11-18T18:06:30.802Z,6.77
2022-11-18T18:08:58.946Z,6.30
2022-11-18T18:11:27.629Z,6.80
2022-11-18T18:14:13.088Z,8.00
2022-11-18T18:16:49.354Z,10.87
2022-11-18T18:19:22.387Z,15.93
2022-11-18T18:21:49.951Z,20.27
2022-11-18T18:24:19.509Z,31.97
2022-11-18T18:26:47.112Z,24.57
2022-11-18T18:29:14.266Z,27.20
2022-11-18T18:31:41.562Z,25.93
2022-11-18T18:34:08.508Z,20.83
2022-11-18T18:36:35.706Z,18.93
2022-11-18T18:39:02.807Z,19.03
2022-11-18T18:41:30.537Z,22.00
2022-11-18T18:43:57.368Z,21.77
2022-11-18T18:46:32.344Z,25.17
2022-11-18T18:49:01.990Z,23.83
2022-11-18T18:51:34.428Z,18.27
2022-11-18T18:54:01.191Z,14.37
2022-11-18T18:56:28.966Z,16.97
2022-11-18T18:58:57.757Z,20.33
2022-11-18T19:01:26.215Z,18.57
2022-11-18T19:04:00.327Z,18.57
2022-11-18T19:09:18.891Z,21.43
2022-11-18T19:12:04.553Z,23.50
2022-11-18T19:14:34.363Z,21.03
2022-11-18T19:17:05.034Z,23.87
2022-11-18T19:19:54.965Z,22.17
2022-11-18T19:22:22.055Z,25.10
2022-11-18T19:24:50.599Z,24.23
2022-11-18T19:27:19.240Z,24.50
2022-11-18T19:29:46.365Z,24.53
2022-11-18T19:32:13.443Z,22.83
2022-11-18T19:34:40.288Z,19.43
2022-11-18T19:37:07.165Z,13.67
2022-11-18T19:39:35.077Z,31.47
2022-11-18T19:42:02.210Z,31.33
2022-11-18T19:44:29.260Z,32.47
2022-11-18T19:46:56.040Z,34.07
2022-11-18T19:49:22.952Z,52.13
2022-11-18T19:51:50.030Z,36.57
2022-11-18T19:54:16.912Z,34.97
2022-11-18T19:56:43.810Z,35.33
2022-11-18T19:59:12.876Z,30.30
2022-11-18T20:01:40.158Z,27.33
2022-11-18T20:04:07.386Z,25.83
2022-11-18T20:06:36.197Z,27.30
2022-11-18T20:09:06.948Z,30.13
2022-11-18T20:11:33.827Z,28.03
2022-11-18T20:14:00.918Z,26.20
2022-11-18T20:16:28.025Z,15.30
2022-11-18T20:19:09.313Z,9.77
2022-11-18T20:21:38.849Z,9.77
2022-11-18T20:24:07.409Z,15.77
2022-11-18T20:26:38.276Z,18.20
2022-11-18T20:29:07.521Z,21.77
2022-11-18T20:31:35.877Z,19.20
2022-11-18T20:34:04.347Z,16.90
2022-11-18T20:36:35.556Z,16.10
2022-11-18T20:39:14.527Z,14.07
2022-11-18T20:41:41.700Z,12.80
2022-11-18T20:44:08.478Z,12.67
2022-11-18T20:46:35.246Z,12.90
2022-11-18T20:49:01.999Z,12.77
2022-11-18T20:51:29.504Z,11.47
2022-11-18T20:53:58.470Z,9.80
2022-11-18T20:56:27.418Z,9.40
2022-11-18T20:58:56.648Z,7.90
2022-11-18T21:01:27.114Z,6.33
2022-11-18T21:04:04.448Z,6.20
2022-11-18T21:06:32.552Z,5.10
2022-11-18T21:09:03.709Z,5.47
2022-11-18T21:11:33.581Z,6.47
2022-11-18T21:14:23.876Z,5.87
2022-11-18T21:16:57.866Z,6.13
2022-11-18T21:19:26.278Z,5.50
2022-11-18T21:21:54.638Z,5.13
2022-11-18T21:24:29.847Z,5.17
2022-11-18T21:26:59.638Z,5.50
2022-11-18T21:29:29.461Z,4.93
2022-11-18T21:31:57.969Z,5.03
2022-11-18T21:34:24.766Z,4.57
2022-11-18T21:36:54.869Z,4.40
2022-11-18T21:39:24.206Z,3.57
2022-11-18T21:41:55.800Z,3.87
2022-11-18T21:44:23.451Z,4.07
2022-11-18T21:46:50.411Z,4.20
2022-11-18T21:49:17.596Z,4.60
2022-11-18T21:51:45.105Z,6.77
2022-11-18T21:54:12.864Z,5.37
2022-11-18T21:56:39.785Z,6.63
2022-11-18T21:59:07.490Z,6.73
2022-11-18T22:01:34.822Z,8.23
2022-11-18T22:04:04.340Z,8.23
2022-11-18T22:06:33.609Z,8.50
2022-11-18T22:09:02.896Z,9.60
2022-11-18T22:11:30.383Z,7.40
2022-11-18T22:13:57.959Z,6.57
2022-11-18T22:16:28.353Z,7.33
2022-11-18T22:19:00.374Z,7.90
2022-11-18T22:21:30.642Z,7.37
2022-11-18T22:24:01.307Z,6.50
2022-11-18T22:26:29.426Z,6.33
2022-11-18T22:28:57.976Z,5.93
2022-11-18T22:31:27.760Z,5.47
2022-11-18T22:33:56.020Z,4.60
2022-11-18T22:36:26.517Z,4.67
2022-11-18T22:38:55.340Z,4.17
2022-11-18T22:41:46.719Z,4.17
2022-11-18T22:44:16.181Z,5.90
2022-11-18T22:46:44.965Z,6.13
2022-11-18T22:49:12.914Z,5.17
2022-11-18T22:51:40.626Z,5.00
2022-11-18T22:54:38.334Z,5.80
2022-11-18T22:56:55.704Z,5.07
2022-11-18T22:59:23.341Z,5.40
2022-11-18T23:01:53.313Z,5.27
2022-11-18T23:04:20.391Z,4.63
2022-11-18T23:06:49.195Z,8.03
2022-11-18T23:09:16.670Z,7.67
2022-11-18T23:12:02.320Z,7.00
2022-11-18T23:14:29.263Z,10.33
2022-11-18T23:16:56.077Z,9.00
2022-11-18T23:19:23.096Z,10.77
2022-11-18T23:21:50.385Z,9.83
2022-11-18T23:24:19.352Z,9.87
2022-11-18T23:26:47.513Z,9.70
2022-11-18T23:29:15.685Z,9.47
2022-11-18T23:31:44.589Z,10.33
2022-11-18T23:34:13.371Z,9.80
2022-11-18T23:36:41.063Z,9.37
2022-11-18T23:39:08.454Z,8.80
2022-11-18T23:41:35.300Z,8.73
2022-11-18T23:44:02.454Z,8.70
2022-11-18T23:46:29.363Z,8.50
2022-11-18T23:48:56.479Z,7.93
2022-11-18T23:51:25.435Z,8.27
2022-11-18T23:53:55.961Z,9.60
2022-11-18T23:56:26.387Z,8.67
2022-11-18T23:58:56.642Z,5.97
